sensor_id;sensor_type;location;lat;lon;timestamp;pressure;altitude;pressure_sealevel;temperature;humidity
55077;BME280;40971;44.702;11.030;2022-12-07T00:01:11;101253.91;;;2.75;100.00
55077;BME280;40971;44.702;11.030;2022-12-07T00:03:38;101238.47;;;2.71;100.00
55077;BME280;40971;44.702;11.030;2022-12-07T00:06:06;101255.56;;;2.79;100.00
55077;BME280;40971;44.702;11.030;2022-12-07T00:08:33;101262.44;;;2.80;100.00
55077;BME280;40971;44.702;11.030;2022-12-07T00:11:13;101253.94;;;2.73;100.00
55077;BME280;40971;44.702;11.030;2022-12-07T00:13:39;101261.50;;;2.84;100.00
55077;BME280;40971;44.702;11.030;2022-12-07T00:18:32;101251.19;;;2.84;100.00
55077;BME280;40971;44.702;11.030;2022-12-07T00:21:01;101194.88;;;2.52;100.00
55077;BME280;40971;44.702;11.030;2022-12-07T00:23:27;101260.59;;;2.89;100.00
55077;BME280;40971;44.702;11.030;2022-12-07T00:25:53;101247.75;;;2.83;100.00
55077;BME280;40971;44.702;11.030;2022-12-07T00:28:18;101202.53;;;2.59;100.00
55077;BME280;40971;44.702;11.030;2022-12-07T00:30:44;101233.25;;;2.76;100.00
55077;BME280;40971;44.702;11.030;2022-12-07T00:33:09;101231.53;;;2.77;100.00
55077;BME280;40971;44.702;11.030;2022-12-07T00:35:34;101239.16;;;2.84;100.00
55077;BME280;40971;44.702;11.030;2022-12-07T00:38:00;101135.09;;;2.25;100.00
55077;BME280;40971;44.702;11.030;2022-12-07T00:40:25;101224.63;;;2.79;100.00
55077;BME280;40971;44.702;11.030;2022-12-07T00:42:51;101220.34;;;2.78;100.00
55077;BME280;40971;44.702;11.030;2022-12-07T00:45:16;101228.97;;;2.75;100.00
55077;BME280;40971;44.702;11.030;2022-12-07T00:47:41;101228.84;;;2.83;100.00
55077;BME280;40971;44.702;11.030;2022-12-07T00:50:07;101216.84;;;2.80;100.00
55077;BME280;40971;44.702;11.030;2022-12-07T00:52:33;101204.59;;;2.94;100.00
55077;BME280;40971;44.702;11.030;2022-12-07T00:54:58;101205.44;;;2.96;100.00
55077;BME280;40971;44.702;11.030;2022-12-07T00:57:23;101200.19;;;3.01;100.00
55077;BME280;40971;44.702;11.030;2022-12-07T00:59:49;101198.44;;;3.05;100.00
55077;BME280;40971;44.702;11.030;2022-12-07T01:02:14;101143.06;;;2.71;100.00
55077;BME280;40971;44.702;11.030;2022-12-07T01:04:40;101205.38;;;2.99;100.00
55077;BME280;40971;44.702;11.030;2022-12-07T01:07:05;101207.00;;;3.07;100.00
55077;BME280;40971;44.702;11.030;2022-12-07T01:09:31;101204.47;;;3.05;100.00
55077;BME280;40971;44.702;11.030;2022-12-07T01:11:56;101162.72;;;2.77;100.00
55077;BME280;40971;44.702;11.030;2022-12-07T01:14:22;101204.53;;;2.99;100.00
55077;BME280;40971;44.702;11.030;2022-12-07T01:16:47;101203.72;;;2.97;100.00
55077;BME280;40971;44.702;11.030;2022-12-07T01:19:12;101210.53;;;2.99;100.00
55077;BME280;40971;44.702;11.030;2022-12-07T01:21:38;101211.38;;;3.03;100.00
55077;BME280;40971;44.702;11.030;2022-12-07T01:24:06;101216.50;;;3.05;100.00
55077;BME280;40971;44.702;11.030;2022-12-07T01:26:32;101168.59;;;2.88;100.00
55077;BME280;40971;44.702;11.030;2022-12-07T01:28:57;101208.78;;;3.05;100.00
55077;BME280;40971;44.702;11.030;2022-12-07T01:31:25;101153.28;;;2.78;100.00
55077;BME280;40971;44.702;11.030;2022-12-07T01:33:54;101205.22;;;3.10;100.00
55077;BME280;40971;44.702;11.030;2022-12-07T01:36:23;101219.78;;;3.14;100.00
55077;BME280;40971;44.702;11.030;2022-12-07T01:38:53;101206.09;;;3.11;100.00
55077;BME280;40971;44.702;11.030;2022-12-07T01:41:20;101164.31;;;2.87;100.00
55077;BME280;40971;44.702;11.030;2022-12-07T01:47:02;101214.53;;;3.22;100.00
55077;BME280;40971;44.702;11.030;2022-12-07T01:52:03;101224.88;;;3.19;100.00
55077;BME280;40971;44.702;11.030;2022-12-07T01:54:33;101224.00;;;3.21;100.00
55077;BME280;40971;44.702;11.030;2022-12-07T01:57:00;101222.28;;;3.22;100.00
55077;BME280;40971;44.702;11.030;2022-12-07T01:59:27;101204.97;;;3.27;100.00
55077;BME280;40971;44.702;11.030;2022-12-07T02:01:54;101228.09;;;3.33;100.00
55077;BME280;40971;44.702;11.030;2022-12-07T02:04:21;101219.50;;;3.32;100.00
55077;BME280;40971;44.702;11.030;2022-12-07T02:06:47;101210.13;;;3.27;100.00
55077;BME280;40971;44.702;11.030;2022-12-07T02:09:12;101211.78;;;3.31;100.00
55077;BME280;40971;44.702;11.030;2022-12-07T02:11:38;101196.47;;;3.20;100.00
55077;BME280;40971;44.702;11.030;2022-12-07T02:14:04;101138.31;;;2.99;100.00
55077;BME280;40971;44.702;11.030;2022-12-07T02:19:11;101201.19;;;3.46;100.00
55077;BME280;40971;44.702;11.030;2022-12-07T02:30:04;101191.84;;;3.41;100.00
55077;BME280;40971;44.702;11.030;2022-12-07T02:35:21;101183.38;;;3.31;100.00
55077;BME280;40971;44.702;11.030;2022-12-07T02:43:24;101169.53;;;3.37;100.00
55077;BME280;40971;44.702;11.030;2022-12-07T02:45:52;101162.69;;;3.32;100.00
55077;BME280;40971;44.702;11.030;2022-12-07T02:48:19;101168.66;;;3.38;100.00
55077;BME280;40971;44.702;11.030;2022-12-07T02:50:48;101145.50;;;3.31;100.00
55077;BME280;40971;44.702;11.030;2022-12-07T03:08:00;101167.66;;;3.45;100.00
55077;BME280;40971;44.702;11.030;2022-12-07T03:18:42;101164.03;;;3.55;100.00
55077;BME280;40971;44.702;11.030;2022-12-07T03:21:14;101101.91;;;3.15;100.00
55077;BME280;40971;44.702;11.030;2022-12-07T03:23:42;101109.41;;;3.30;100.00
55077;BME280;40971;44.702;11.030;2022-12-07T03:26:12;101161.25;;;3.66;100.00
55077;BME280;40971;44.702;11.030;2022-12-07T03:28:43;101167.22;;;3.71;100.00
55077;BME280;40971;44.702;11.030;2022-12-07T03:31:41;101155.16;;;3.68;100.00
55077;BME280;40971;44.702;11.030;2022-12-07T03:36:45;101100.97;;;3.19;100.00
55077;BME280;40971;44.702;11.030;2022-12-07T03:39:34;101137.41;;;3.53;100.00
55077;BME280;40971;44.702;11.030;2022-12-07T03:42:04;101144.88;;;3.67;100.00
55077;BME280;40971;44.702;11.030;2022-12-07T03:44:31;101131.50;;;3.45;100.00
55077;BME280;40971;44.702;11.030;2022-12-07T03:47:15;101136.63;;;3.48;100.00
55077;BME280;40971;44.702;11.030;2022-12-07T03:50:02;101143.41;;;3.53;100.00
55077;BME280;40971;44.702;11.030;2022-12-07T03:57:34;101125.28;;;3.56;100.00
55077;BME280;40971;44.702;11.030;2022-12-07T04:00:04;101131.41;;;3.49;100.00
55077;BME280;40971;44.702;11.030;2022-12-07T04:02:30;101121.13;;;3.48;100.00
55077;BME280;40971;44.702;11.030;2022-12-07T04:04:55;101085.19;;;3.36;100.00
55077;BME280;40971;44.702;11.030;2022-12-07T04:07:21;101017.00;;;3.03;100.00
55077;BME280;40971;44.702;11.030;2022-12-07T04:09:47;101093.78;;;3.38;100.00
55077;BME280;40971;44.702;11.030;2022-12-07T04:12:12;101104.66;;;3.55;100.00
55077;BME280;40971;44.702;11.030;2022-12-07T04:14:38;101012.72;;;3.00;100.00
55077;BME280;40971;44.702;11.030;2022-12-07T04:17:03;101095.25;;;3.49;100.00
55077;BME280;40971;44.702;11.030;2022-12-07T04:19:31;101093.56;;;3.48;100.00
55077;BME280;40971;44.702;11.030;2022-12-07T04:21:58;101055.28;;;3.25;100.00
55077;BME280;40971;44.702;11.030;2022-12-07T04:24:24;101123.50;;;3.58;100.00
55077;BME280;40971;44.702;11.030;2022-12-07T04:26:50;101048.38;;;3.26;100.00
55077;BME280;40971;44.702;11.030;2022-12-07T04:29:16;101103.88;;;3.50;100.00
55077;BME280;40971;44.702;11.030;2022-12-07T04:31:45;101103.59;;;3.63;100.00
55077;BME280;40971;44.702;11.030;2022-12-07T04:34:12;101107.06;;;3.62;100.00
55077;BME280;40971;44.702;11.030;2022-12-07T04:36:38;101108.69;;;3.68;100.00
55077;BME280;40971;44.702;11.030;2022-12-07T04:39:04;101117.44;;;3.61;100.00
55077;BME280;40971;44.702;11.030;2022-12-07T04:41:30;101111.56;;;3.51;100.00
55077;BME280;40971;44.702;11.030;2022-12-07T04:44:01;101065.50;;;3.30;100.00
55077;BME280;40971;44.702;11.030;2022-12-07T04:46:28;101121.50;;;3.74;100.00
55077;BME280;40971;44.702;11.030;2022-12-07T04:48:54;101114.88;;;3.59;100.00
55077;BME280;40971;44.702;11.030;2022-12-07T04:51:23;101105.53;;;3.54;100.00
55077;BME280;40971;44.702;11.030;2022-12-07T04:53:49;101102.91;;;3.55;100.00
55077;BME280;40971;44.702;11.030;2022-12-07T04:56:16;101047.47;;;3.28;100.00
55077;BME280;40971;44.702;11.030;2022-12-07T04:58:43;101115.53;;;3.71;100.00
55077;BME280;40971;44.702;11.030;2022-12-07T05:01:09;101104.41;;;3.67;100.00
55077;BME280;40971;44.702;11.030;2022-12-07T05:03:36;101088.06;;;3.65;100.00
55077;BME280;40971;44.702;11.030;2022-12-07T05:06:01;101091.53;;;3.64;100.00
55077;BME280;40971;44.702;11.030;2022-12-07T05:08:27;101089.75;;;3.68;100.00
55077;BME280;40971;44.702;11.030;2022-12-07T05:10:52;101099.19;;;3.69;100.00
55077;BME280;40971;44.702;11.030;2022-12-07T05:13:18;101051.56;;;3.40;100.00
55077;BME280;40971;44.702;11.030;2022-12-07T05:15:43;101095.75;;;3.68;100.00
55077;BME280;40971;44.702;11.030;2022-12-07T05:18:10;101101.72;;;3.73;100.00
55077;BME280;40971;44.702;11.030;2022-12-07T05:20:38;101043.78;;;3.42;100.00
55077;BME280;40971;44.702;11.030;2022-12-07T05:23:03;101109.19;;;3.85;100.00
55077;BME280;40971;44.702;11.030;2022-12-07T05:25:29;101115.19;;;3.89;100.00
55077;BME280;40971;44.702;11.030;2022-12-07T05:27:55;101114.28;;;3.90;100.00
55077;BME280;40971;44.702;11.030;2022-12-07T05:30:22;101112.50;;;3.93;100.00
55077;BME280;40971;44.702;11.030;2022-12-07T05:32:48;101112.53;;;3.92;100.00
55077;BME280;40971;44.702;11.030;2022-12-07T05:35:13;101053.00;;;3.55;100.00
55077;BME280;40971;44.702;11.030;2022-12-07T05:37:39;101064.09;;;3.60;100.00
55077;BME280;40971;44.702;11.030;2022-12-07T05:40:05;101119.34;;;3.95;100.00
55077;BME280;40971;44.702;11.030;2022-12-07T05:42:31;101110.91;;;3.88;100.00
55077;BME280;40971;44.702;11.030;2022-12-07T05:44:57;101058.09;;;3.58;100.00
55077;BME280;40971;44.702;11.030;2022-12-07T05:47:22;101092.13;;;3.78;100.00
55077;BME280;40971;44.702;11.030;2022-12-07T05:49:48;101011.22;;;3.35;100.00
55077;BME280;40971;44.702;11.030;2022-12-07T05:52:13;101118.44;;;3.97;100.00
55077;BME280;40971;44.702;11.030;2022-12-07T05:54:39;101120.19;;;3.97;100.00
55077;BME280;40971;44.702;11.030;2022-12-07T05:57:04;101119.31;;;3.96;100.00
55077;BME280;40971;44.702;11.030;2022-12-07T05:59:29;101110.75;;;3.94;100.00
55077;BME280;40971;44.702;11.030;2022-12-07T06:01:57;101103.88;;;3.93;100.00
55077;BME280;40971;44.702;11.030;2022-12-07T06:04:25;101106.50;;;3.91;100.00
55077;BME280;40971;44.702;11.030;2022-12-07T06:06:51;101108.16;;;3.94;100.00
55077;BME280;40971;44.702;11.030;2022-12-07T06:09:17;101115.84;;;3.97;100.00
55077;BME280;40971;44.702;11.030;2022-12-07T06:11:43;101109.88;;;3.95;100.00
55077;BME280;40971;44.702;11.030;2022-12-07T06:14:27;101051.91;;;3.65;100.00
55077;BME280;40971;44.702;11.030;2022-12-07T06:16:53;101113.19;;;4.00;100.00
55077;BME280;40971;44.702;11.030;2022-12-07T06:19:18;101105.63;;;3.92;100.00
55077;BME280;40971;44.702;11.030;2022-12-07T06:21:44;101105.63;;;3.92;100.00
55077;BME280;40971;44.702;11.030;2022-12-07T06:24:14;101116.59;;;4.02;100.00
55077;BME280;40971;44.702;11.030;2022-12-07T06:26:40;101053.63;;;3.66;100.00
55077;BME280;40971;44.702;11.030;2022-12-07T06:29:05;101135.53;;;4.04;100.00
55077;BME280;40971;44.702;11.030;2022-12-07T06:31:31;101116.72;;;3.98;100.00
55077;BME280;40971;44.702;11.030;2022-12-07T06:34:01;101114.06;;;4.01;100.00
55077;BME280;40971;44.702;11.030;2022-12-07T06:36:27;101130.22;;;4.10;100.00
55077;BME280;40971;44.702;11.030;2022-12-07T06:38:53;101124.25;;;4.08;100.00
55077;BME280;40971;44.702;11.030;2022-12-07T06:41:19;101100.28;;;4.00;100.00
55077;BME280;40971;44.702;11.030;2022-12-07T06:43:44;101125.88;;;4.12;100.00
55077;BME280;40971;44.702;11.030;2022-12-07T06:46:09;101134.31;;;4.22;100.00
55077;BME280;40971;44.702;11.030;2022-12-07T06:48:35;101112.84;;;4.17;100.00
55077;BME280;40971;44.702;11.030;2022-12-07T06:51:00;101071.19;;;3.92;100.00
55077;BME280;40971;44.702;11.030;2022-12-07T06:53:26;101117.16;;;4.16;100.00
55077;BME280;40971;44.702;11.030;2022-12-07T06:55:51;101119.69;;;4.19;100.00
55077;BME280;40971;44.702;11.030;2022-12-07T06:58:17;101122.22;;;4.22;100.00
55077;BME280;40971;44.702;11.030;2022-12-07T07:00:44;101123.91;;;4.25;100.00
55077;BME280;40971;44.702;11.030;2022-12-07T07:03:09;101136.03;;;4.21;100.00
55077;BME280;40971;44.702;11.030;2022-12-07T07:05:35;101134.38;;;4.17;100.00
55077;BME280;40971;44.702;11.030;2022-12-07T07:08:01;101120.88;;;4.05;100.00
55077;BME280;40971;44.702;11.030;2022-12-07T07:10:26;101127.53;;;4.15;100.00
55077;BME280;40971;44.702;11.030;2022-12-07T07:12:51;101071.50;;;3.77;100.00
55077;BME280;40971;44.702;11.030;2022-12-07T07:15:17;101109.00;;;3.96;100.00
55077;BME280;40971;44.702;11.030;2022-12-07T07:17:43;101139.41;;;4.25;100.00
55077;BME280;40971;44.702;11.030;2022-12-07T07:20:08;101154.88;;;4.27;100.00
55077;BME280;40971;44.702;11.030;2022-12-07T07:22:34;101141.97;;;4.27;100.00
55077;BME280;40971;44.702;11.030;2022-12-07T07:24:59;101138.50;;;4.28;100.00
55077;BME280;40971;44.702;11.030;2022-12-07T07:27:25;101136.03;;;4.21;100.00
55077;BME280;40971;44.702;11.030;2022-12-07T07:29:50;101161.91;;;4.21;100.00
55077;BME280;40971;44.702;11.030;2022-12-07T07:32:16;101150.72;;;4.19;100.00
55077;BME280;40971;44.702;11.030;2022-12-07T07:34:41;101144.69;;;4.19;100.00
55077;BME280;40971;44.702;11.030;2022-12-07T07:37:07;101156.59;;;4.28;100.00
55077;BME280;40971;44.702;11.030;2022-12-07T07:39:32;101159.97;;;4.30;100.00
55077;BME280;40971;44.702;11.030;2022-12-07T07:41:58;101142.16;;;4.16;100.00
55077;BME280;40971;44.702;11.030;2022-12-07T07:44:23;101154.84;;;4.28;100.00
55077;BME280;40971;44.702;11.030;2022-12-07T07:46:48;101162.44;;;4.36;100.00
55077;BME280;40971;44.702;11.030;2022-12-07T07:49:14;101167.59;;;4.37;100.00
55077;BME280;40971;44.702;11.030;2022-12-07T07:51:39;101173.66;;;4.35;100.00
55077;BME280;40971;44.702;11.030;2022-12-07T07:54:05;101116.56;;;4.05;100.00
55077;BME280;40971;44.702;11.030;2022-12-07T07:56:30;101151.44;;;4.26;100.00
55077;BME280;40971;44.702;11.030;2022-12-07T07:58:56;101183.81;;;4.44;100.00
55077;BME280;40971;44.702;11.030;2022-12-07T08:01:21;101181.38;;;4.36;100.00
55077;BME280;40971;44.702;11.030;2022-12-07T08:03:47;101184.19;;;4.27;100.00
55077;BME280;40971;44.702;11.030;2022-12-07T08:06:12;101176.50;;;4.24;100.00
55077;BME280;40971;44.702;11.030;2022-12-07T08:08:38;101178.13;;;4.28;100.00
55077;BME280;40971;44.702;11.030;2022-12-07T08:11:07;101190.03;;;4.37;100.00
55077;BME280;40971;44.702;11.030;2022-12-07T08:13:33;101135.50;;;4.06;100.00
55077;BME280;40971;44.702;11.030;2022-12-07T08:16:03;101189.22;;;4.33;100.00
55077;BME280;40971;44.702;11.030;2022-12-07T08:18:29;101189.38;;;4.26;100.00
55077;BME280;40971;44.702;11.030;2022-12-07T08:21:01;101186.00;;;4.22;100.00
55077;BME280;40971;44.702;11.030;2022-12-07T08:23:27;101201.56;;;4.19;100.00
55077;BME280;40971;44.702;11.030;2022-12-07T08:25:52;101132.59;;;3.78;100.00
55077;BME280;40971;44.702;11.030;2022-12-07T08:28:18;101198.16;;;4.17;100.00
55077;BME280;40971;44.702;11.030;2022-12-07T08:30:43;101192.28;;;4.10;100.00
55077;BME280;40971;44.702;11.030;2022-12-07T08:33:10;101207.88;;;4.06;100.00
55077;BME280;40971;44.702;11.030;2022-12-07T08:35:35;101190.00;;;3.93;100.00
55077;BME280;40971;44.702;11.030;2022-12-07T08:38:02;101210.47;;;4.06;100.00
55077;BME280;40971;44.702;11.030;2022-12-07T08:40:28;101213.78;;;4.12;100.00
55077;BME280;40971;44.702;11.030;2022-12-07T08:42:53;101155.66;;;3.88;100.00
55077;BME280;40971;44.702;11.030;2022-12-07T08:45:20;101196.47;;;4.16;100.00
55077;BME280;40971;44.702;11.030;2022-12-07T08:47:57;101175.13;;;4.06;100.00
55077;BME280;40971;44.702;11.030;2022-12-07T08:50:25;101201.53;;;4.22;100.00
55077;BME280;40971;44.702;11.030;2022-12-07T08:52:53;101202.41;;;4.21;100.00
55077;BME280;40971;44.702;11.030;2022-12-07T08:55:20;101173.50;;;4.01;100.00
55077;BME280;40971;44.702;11.030;2022-12-07T08:57:46;101112.22;;;3.64;100.00
55077;BME280;40971;44.702;11.030;2022-12-07T09:00:12;101176.06;;;4.01;100.00
55077;BME280;40971;44.702;11.030;2022-12-07T09:02:38;101210.16;;;4.19;100.00
55077;BME280;40971;44.702;11.030;2022-12-07T09:05:03;101218.59;;;4.29;100.00
55077;BME280;40971;44.702;11.030;2022-12-07T09:07:30;101207.50;;;4.24;100.00
55077;BME280;40971;44.702;11.030;2022-12-07T09:09:56;101160.72;;;3.95;100.00
55077;BME280;40971;44.702;11.030;2022-12-07T09:12:21;101119.66;;;3.79;100.00
55077;BME280;40971;44.702;11.030;2022-12-07T09:14:47;101186.91;;;4.19;100.00
55077;BME280;40971;44.702;11.030;2022-12-07T09:17:13;101145.72;;;4.12;100.00
55077;BME280;40971;44.702;11.030;2022-12-07T09:19:38;101157.72;;;4.14;100.00
55077;BME280;40971;44.702;11.030;2022-12-07T09:22:04;101207.81;;;4.50;100.00
55077;BME280;40971;44.702;11.030;2022-12-07T09:24:31;101192.47;;;4.43;100.00
55077;BME280;40971;44.702;11.030;2022-12-07T09:26:57;101155.69;;;4.29;100.00
55077;BME280;40971;44.702;11.030;2022-12-07T09:29:23;101212.44;;;4.76;100.00
55077;BME280;40971;44.702;11.030;2022-12-07T09:31:48;101213.91;;;4.88;100.00
55077;BME280;40971;44.702;11.030;2022-12-07T09:34:14;101196.53;;;4.93;100.00
55077;BME280;40971;44.702;11.030;2022-12-07T09:36:39;101219.59;;;5.04;100.00
55077;BME280;40971;44.702;11.030;2022-12-07T09:39:04;101222.44;;;4.92;100.00
55077;BME280;40971;44.702;11.030;2022-12-07T09:41:31;101225.94;;;4.91;100.00
55077;BME280;40971;44.702;11.030;2022-12-07T09:44:06;101230.22;;;4.92;100.00
55077;BME280;40971;44.702;11.030;2022-12-07T09:46:40;101226.81;;;4.90;100.00
55077;BME280;40971;44.702;11.030;2022-12-07T09:49:12;101232.13;;;4.82;100.00
55077;BME280;40971;44.702;11.030;2022-12-07T09:51:38;101171.63;;;4.49;100.00
55077;BME280;40971;44.702;11.030;2022-12-07T09:54:04;101231.31;;;4.80;100.00
55077;BME280;40971;44.702;11.030;2022-12-07T09:56:30;101229.69;;;4.76;100.00
55077;BME280;40971;44.702;11.030;2022-12-07T09:59:01;101235.97;;;4.64;100.00
55077;BME280;40971;44.702;11.030;2022-12-07T10:01:30;101235.00;;;4.70;100.00
55077;BME280;40971;44.702;11.030;2022-12-07T10:04:18;101212.19;;;4.47;100.00
55077;BME280;40971;44.702;11.030;2022-12-07T10:06:46;101239.38;;;4.66;100.00
55077;BME280;40971;44.702;11.030;2022-12-07T10:09:15;101182.38;;;4.31;100.00
55077;BME280;40971;44.702;11.030;2022-12-07T10:12:04;101231.50;;;4.72;100.00
55077;BME280;40971;44.702;11.030;2022-12-07T10:14:31;101155.69;;;4.29;100.00
55077;BME280;40971;44.702;11.030;2022-12-07T10:16:58;101220.34;;;4.69;100.00
55077;BME280;40971;44.702;11.030;2022-12-07T10:19:32;101217.56;;;4.78;100.00
55077;BME280;40971;44.702;11.030;2022-12-07T10:22:04;101211.47;;;4.80;100.00
55077;BME280;40971;44.702;11.030;2022-12-07T10:24:29;101210.66;;;4.78;100.00
55077;BME280;40971;44.702;11.030;2022-12-07T10:26:55;101168.88;;;4.58;100.00
55077;BME280;40971;44.702;11.030;2022-12-07T10:29:33;101220.44;;;5.03;100.00
55077;BME280;40971;44.702;11.030;2022-12-07T10:32:28;101213.75;;;4.94;100.00
55077;BME280;40971;44.702;11.030;2022-12-07T10:34:50;101213.38;;;5.11;100.00
55077;BME280;40971;44.702;11.030;2022-12-07T10:37:19;101214.00;;;5.21;100.00
55077;BME280;40971;44.702;11.030;2022-12-07T10:42:22;101213.78;;;5.30;100.00
55077;BME280;40971;44.702;11.030;2022-12-07T10:44:50;101181.00;;;5.29;100.00
55077;BME280;40971;44.702;11.030;2022-12-07T10:47:40;101206.34;;;5.50;100.00
55077;BME280;40971;44.702;11.030;2022-12-07T10:53:41;101196.53;;;5.63;100.00
55077;BME280;40971;44.702;11.030;2022-12-07T11:01:25;101168.84;;;5.65;100.00
55077;BME280;40971;44.702;11.030;2022-12-07T11:07:18;101186.00;;;5.35;100.00
55077;BME280;40971;44.702;11.030;2022-12-07T11:13:00;101183.38;;;5.36;100.00
55077;BME280;40971;44.702;11.030;2022-12-07T11:15:52;101174.09;;;5.62;100.00
55077;BME280;40971;44.702;11.030;2022-12-07T11:18:59;101158.25;;;5.74;100.00
55077;BME280;40971;44.702;11.030;2022-12-07T11:21:48;101161.94;;;5.98;100.00
55077;BME280;40971;44.702;11.030;2022-12-07T11:30:01;101143.81;;;5.96;100.00
55077;BME280;40971;44.702;11.030;2022-12-07T11:35:37;101148.53;;;6.13;100.00
55077;BME280;40971;44.702;11.030;2022-12-07T11:38:17;101118.94;;;5.91;100.00
55077;BME280;40971;44.702;11.030;2022-12-07T11:40:48;101146.31;;;5.99;100.00
55077;BME280;40971;44.702;11.030;2022-12-07T11:43:34;101125.81;;;5.92;100.00
55077;BME280;40971;44.702;11.030;2022-12-07T11:46:04;101133.03;;;6.12;100.00
55077;BME280;40971;44.702;11.030;2022-12-07T11:51:20;101083.56;;;5.88;100.00
55077;BME280;40971;44.702;11.030;2022-12-07T11:53:56;101077.56;;;5.85;100.00
55077;BME280;40971;44.702;11.030;2022-12-07T11:56:26;101128.09;;;6.32;100.00
55077;BME280;40971;44.702;11.030;2022-12-07T12:06:39;101017.25;;;5.80;100.00
55077;BME280;40971;44.702;11.030;2022-12-07T12:20:43;101037.63;;;6.21;100.00
55077;BME280;40971;44.702;11.030;2022-12-07T12:23:19;101117.47;;;6.68;100.00
55077;BME280;40971;44.702;11.030;2022-12-07T12:25:46;101113.56;;;6.54;100.00
55077;BME280;40971;44.702;11.030;2022-12-07T12:28:51;101109.41;;;6.49;100.00
55077;BME280;40971;44.702;11.030;2022-12-07T12:46:59;101109.31;;;6.52;100.00
55077;BME280;40971;44.702;11.030;2022-12-07T12:55:14;101048.94;;;6.47;100.00
55077;BME280;40971;44.702;11.030;2022-12-07T12:57:44;101029.00;;;6.21;100.00
55077;BME280;40971;44.702;11.030;2022-12-07T13:00:18;101082.41;;;6.54;100.00
55077;BME280;40971;44.702;11.030;2022-12-07T13:02:55;101060.78;;;6.27;100.00
55077;BME280;40971;44.702;11.030;2022-12-07T13:05:24;101100.72;;;6.50;100.00
55077;BME280;40971;44.702;11.030;2022-12-07T13:08:05;101048.88;;;6.48;100.00
55077;BME280;40971;44.702;11.030;2022-12-07T13:10:43;101085.84;;;7.09;100.00
55077;BME280;40971;44.702;11.030;2022-12-07T13:15:45;101081.22;;;7.17;100.00
55077;BME280;40971;44.702;11.030;2022-12-07T13:31:48;101059.59;;;7.42;100.00
55077;BME280;40971;44.702;11.030;2022-12-07T13:36:58;101021.22;;;7.48;100.00
55077;BME280;40971;44.702;11.030;2022-12-07T13:39:28;101075.63;;;7.78;100.00
55077;BME280;40971;44.702;11.030;2022-12-07T13:41:54;101070.19;;;7.61;100.00
55077;BME280;40971;44.702;11.030;2022-12-07T13:44:22;101034.75;;;7.58;100.00
55077;BME280;40971;44.702;11.030;2022-12-07T13:49:22;101075.44;;;7.59;100.00
55077;BME280;40971;44.702;11.030;2022-12-07T13:51:48;101065.94;;;7.58;100.00
55077;BME280;40971;44.702;11.030;2022-12-07T13:54:14;101018.28;;;7.34;100.00
55077;BME280;40971;44.702;11.030;2022-12-07T13:56:40;101057.84;;;7.66;100.00
55077;BME280;40971;44.702;11.030;2022-12-07T13:59:35;101061.66;;;7.57;100.00
55077;BME280;40971;44.702;11.030;2022-12-07T14:02:16;101052.88;;;7.60;100.00
55077;BME280;40971;44.702;11.030;2022-12-07T14:04:42;100969.66;;;6.89;100.00
55077;BME280;40971;44.702;11.030;2022-12-07T14:07:26;101012.56;;;7.00;100.00
55077;BME280;40971;44.702;11.030;2022-12-07T14:10:03;101073.22;;;7.23;100.00
55077;BME280;40971;44.702;11.030;2022-12-07T14:12:31;101068.78;;;7.27;100.00
55077;BME280;40971;44.702;11.030;2022-12-07T14:14:58;101062.47;;;7.09;100.00
55077;BME280;40971;44.702;11.030;2022-12-07T14:17:26;101065.78;;;7.13;100.00
55077;BME280;40971;44.702;11.030;2022-12-07T14:22:59;101017.25;;;6.63;100.00
55077;BME280;40971;44.702;11.030;2022-12-07T14:25:26;101066.41;;;6.94;100.00
55077;BME280;40971;44.702;11.030;2022-12-07T14:30:19;100991.91;;;6.45;100.00
55077;BME280;40971;44.702;11.030;2022-12-07T14:32:44;101067.25;;;6.69;100.00
55077;BME280;40971;44.702;11.030;2022-12-07T14:35:16;101065.09;;;6.55;100.00
55077;BME280;40971;44.702;11.030;2022-12-07T14:37:45;101067.16;;;6.45;100.00
55077;BME280;40971;44.702;11.030;2022-12-07T14:40:22;101016.69;;;5.99;100.00
55077;BME280;40971;44.702;11.030;2022-12-07T14:42:51;101066.63;;;6.34;100.00
55077;BME280;40971;44.702;11.030;2022-12-07T14:45:21;101070.47;;;6.21;100.00
55077;BME280;40971;44.702;11.030;2022-12-07T14:47:47;101076.16;;;6.33;100.00
55077;BME280;40971;44.702;11.030;2022-12-07T14:50:15;101082.94;;;6.10;100.00
55077;BME280;40971;44.702;11.030;2022-12-07T14:52:43;101087.22;;;6.11;100.00
55077;BME280;40971;44.702;11.030;2022-12-07T14:55:25;101032.19;;;5.71;100.00
55077;BME280;40971;44.702;11.030;2022-12-07T14:57:51;101071.53;;;5.84;100.00
55077;BME280;40971;44.702;11.030;2022-12-07T15:00:18;101087.19;;;5.81;100.00
55077;BME280;40971;44.702;11.030;2022-12-07T15:02:45;101040.03;;;5.39;100.00
55077;BME280;40971;44.702;11.030;2022-12-07T15:05:11;101091.16;;;5.63;100.00
55077;BME280;40971;44.702;11.030;2022-12-07T15:07:37;101089.53;;;5.59;100.00
55077;BME280;40971;44.702;11.030;2022-12-07T15:10:03;101047.06;;;5.34;100.00
55077;BME280;40971;44.702;11.030;2022-12-07T15:12:29;101089.19;;;5.40;100.00
55077;BME280;40971;44.702;11.030;2022-12-07T15:14:55;101104.19;;;5.28;100.00
55077;BME280;40971;44.702;11.030;2022-12-07T15:17:20;101051.31;;;4.68;100.00
55077;BME280;40971;44.702;11.030;2022-12-07T15:19:46;101105.22;;;4.87;100.00
55077;BME280;40971;44.702;11.030;2022-12-07T15:22:11;101120.13;;;4.77;100.00